sensor_id;sensor_type;location;lat;lon;timestamp;temperature;humidity
4431;DHT22;2228;48.140;11.488;2023-03-01T00:01:39;2.50;1.00
4431;DHT22;2228;48.140;11.488;2023-03-01T00:04:06;2.60;1.00
4431;DHT22;2228;48.140;11.488;2023-03-01T00:06:33;2.60;1.00
4431;DHT22;2228;48.140;11.488;2023-03-01T00:08:59;2.60;1.00
4431;DHT22;2228;48.140;11.488;2023-03-01T00:11:28;2.60;1.00
4431;DHT22;2228;48.140;11.488;2023-03-01T00:13:58;2.50;1.00
4431;DHT22;2228;48.140;11.488;2023-03-01T00:16:28;2.50;1.00
4431;DHT22;2228;48.140;11.488;2023-03-01T00:18:57;2.50;1.00
4431;DHT22;2228;48.140;11.488;2023-03-01T00:21:25;2.50;1.00
4431;DHT22;2228;48.140;11.488;2023-03-01T00:23:53;2.50;1.00
4431;DHT22;2228;48.140;11.488;2023-03-01T00:26:22;2.50;1.00
4431;DHT22;2228;48.140;11.488;2023-03-01T00:28:49;2.50;1.00
4431;DHT22;2228;48.140;11.488;2023-03-01T00:31:18;2.50;1.00
4431;DHT22;2228;48.140;11.488;2023-03-01T00:33:45;2.50;1.00
4431;DHT22;2228;48.140;11.488;2023-03-01T00:36:15;2.50;1.00
4431;DHT22;2228;48.140;11.488;2023-03-01T00:38:44;2.40;1.00
4431;DHT22;2228;48.140;11.488;2023-03-01T00:41:12;2.50;1.00
4431;DHT22;2228;48.140;11.488;2023-03-01T00:43:39;2.50;1.00
4431;DHT22;2228;48.140;11.488;2023-03-01T00:46:09;2.50;1.00
4431;DHT22;2228;48.140;11.488;2023-03-01T00:48:36;2.50;1.00
4431;DHT22;2228;48.140;11.488;2023-03-01T00:51:08;2.50;1.00
4431;DHT22;2228;48.140;11.488;2023-03-01T00:53:37;2.50;1.00
4431;DHT22;2228;48.140;11.488;2023-03-01T00:56:05;2.50;1.00
4431;DHT22;2228;48.140;11.488;2023-03-01T00:58:32;2.50;1.00
4431;DHT22;2228;48.140;11.488;2023-03-01T01:00:59;2.50;1.00
4431;DHT22;2228;48.140;11.488;2023-03-01T01:03:27;2.50;1.00
4431;DHT22;2228;48.140;11.488;2023-03-01T01:05:54;2.60;1.00
4431;DHT22;2228;48.140;11.488;2023-03-01T01:08:21;2.50;1.00
4431;DHT22;2228;48.140;11.488;2023-03-01T01:10:50;2.50;1.00
4431;DHT22;2228;48.140;11.488;2023-03-01T01:13:16;2.40;1.00
4431;DHT22;2228;48.140;11.488;2023-03-01T01:15:43;2.50;1.00
4431;DHT22;2228;48.140;11.488;2023-03-01T01:18:10;2.40;1.00
4431;DHT22;2228;48.140;11.488;2023-03-01T01:20:37;2.30;1.00
4431;DHT22;2228;48.140;11.488;2023-03-01T01:23:05;2.40;1.00
4431;DHT22;2228;48.140;11.488;2023-03-01T01:25:35;2.40;1.00
4431;DHT22;2228;48.140;11.488;2023-03-01T01:28:03;2.50;1.00
4431;DHT22;2228;48.140;11.488;2023-03-01T01:30:30;2.50;1.00
4431;DHT22;2228;48.140;11.488;2023-03-01T01:32:57;2.40;1.00
4431;DHT22;2228;48.140;11.488;2023-03-01T01:35:24;2.40;1.00
4431;DHT22;2228;48.140;11.488;2023-03-01T01:37:51;2.40;1.00
4431;DHT22;2228;48.140;11.488;2023-03-01T01:40:18;2.40;1.00
4431;DHT22;2228;48.140;11.488;2023-03-01T01:42:45;2.40;1.00
4431;DHT22;2228;48.140;11.488;2023-03-01T01:45:31;2.30;1.00
4431;DHT22;2228;48.140;11.488;2023-03-01T01:48:02;2.20;1.00
4431;DHT22;2228;48.140;11.488;2023-03-01T01:50:32;2.30;1.00
4431;DHT22;2228;48.140;11.488;2023-03-01T01:53:05;2.30;1.00
4431;DHT22;2228;48.140;11.488;2023-03-01T01:55:33;2.30;1.00
4431;DHT22;2228;48.140;11.488;2023-03-01T01:58:05;2.30;1.00
4431;DHT22;2228;48.140;11.488;2023-03-01T02:00:35;2.30;1.00
4431;DHT22;2228;48.140;11.488;2023-03-01T02:03:06;2.30;1.00
4431;DHT22;2228;48.140;11.488;2023-03-01T02:05:39;2.30;1.00
4431;DHT22;2228;48.140;11.488;2023-03-01T02:08:11;2.30;1.00
4431;DHT22;2228;48.140;11.488;2023-03-01T02:10:39;2.30;1.00
4431;DHT22;2228;48.140;11.488;2023-03-01T02:13:07;2.30;1.00
4431;DHT22;2228;48.140;11.488;2023-03-01T02:15:37;2.20;1.00
4431;DHT22;2228;48.140;11.488;2023-03-01T02:18:06;2.20;1.00
4431;DHT22;2228;48.140;11.488;2023-03-01T02:20:35;2.20;1.00
4431;DHT22;2228;48.140;11.488;2023-03-01T02:23:07;2.20;1.00
4431;DHT22;2228;48.140;11.488;2023-03-01T02:25:40;2.30;1.00
4431;DHT22;2228;48.140;11.488;2023-03-01T02:28:24;2.20;1.00
4431;DHT22;2228;48.140;11.488;2023-03-01T02:30:51;2.20;1.00
4431;DHT22;2228;48.140;11.488;2023-03-01T02:33:40;2.20;1.00
4431;DHT22;2228;48.140;11.488;2023-03-01T02:36:10;2.20;1.00
4431;DHT22;2228;48.140;11.488;2023-03-01T02:38:39;2.10;1.00
4431;DHT22;2228;48.140;11.488;2023-03-01T02:41:08;2.10;1.00
4431;DHT22;2228;48.140;11.488;2023-03-01T02:43:36;2.00;1.00
4431;DHT22;2228;48.140;11.488;2023-03-01T02:46:06;2.00;1.00
4431;DHT22;2228;48.140;11.488;2023-03-01T02:48:41;2.00;1.00
4431;DHT22;2228;48.140;11.488;2023-03-01T02:54:09;2.00;1.00
4431;DHT22;2228;48.140;11.488;2023-03-01T02:56:40;2.00;1.00
4431;DHT22;2228;48.140;11.488;2023-03-01T02:59:09;2.10;1.00
4431;DHT22;2228;48.140;11.488;2023-03-01T03:01:37;2.10;1.00
4431;DHT22;2228;48.140;11.488;2023-03-01T03:04:06;2.10;1.00
4431;DHT22;2228;48.140;11.488;2023-03-01T03:06:33;2.00;1.00
4431;DHT22;2228;48.140;11.488;2023-03-01T03:09:01;1.90;1.00
4431;DHT22;2228;48.140;11.488;2023-03-01T03:11:28;2.00;1.00
4431;DHT22;2228;48.140;11.488;2023-03-01T03:13:56;1.90;1.00
4431;DHT22;2228;48.140;11.488;2023-03-01T03:16:25;2.00;1.00
4431;DHT22;2228;48.140;11.488;2023-03-01T03:18:52;2.00;1.00
4431;DHT22;2228;48.140;11.488;2023-03-01T03:21:19;2.00;1.00
4431;DHT22;2228;48.140;11.488;2023-03-01T03:23:46;1.90;1.00
4431;DHT22;2228;48.140;11.488;2023-03-01T03:26:13;1.90;1.00
4431;DHT22;2228;48.140;11.488;2023-03-01T03:28:40;1.90;1.00
4431;DHT22;2228;48.140;11.488;2023-03-01T03:31:08;1.90;1.00
4431;DHT22;2228;48.140;11.488;2023-03-01T03:33:37;1.80;1.00
4431;DHT22;2228;48.140;11.488;2023-03-01T03:36:05;1.80;1.00
4431;DHT22;2228;48.140;11.488;2023-03-01T03:38:32;1.70;1.00
4431;DHT22;2228;48.140;11.488;2023-03-01T03:41:01;1.60;1.00
4431;DHT22;2228;48.140;11.488;2023-03-01T03:43:29;1.60;1.00
4431;DHT22;2228;48.140;11.488;2023-03-01T03:45:57;1.70;1.00
4431;DHT22;2228;48.140;11.488;2023-03-01T03:48:24;1.80;1.00
4431;DHT22;2228;48.140;11.488;2023-03-01T03:50:55;1.80;1.00
4431;DHT22;2228;48.140;11.488;2023-03-01T03:53:24;1.70;1.00
4431;DHT22;2228;48.140;11.488;2023-03-01T03:55:52;1.70;1.00
4431;DHT22;2228;48.140;11.488;2023-03-01T03:58:21;1.70;1.00
4431;DHT22;2228;48.140;11.488;2023-03-01T04:00:50;1.60;1.00
4431;DHT22;2228;48.140;11.488;2023-03-01T04:03:19;1.60;1.00
4431;DHT22;2228;48.140;11.488;2023-03-01T04:05:47;1.60;1.00
4431;DHT22;2228;48.140;11.488;2023-03-01T04:08:17;1.70;1.00
4431;DHT22;2228;48.140;11.488;2023-03-01T04:10:47;1.70;1.00
4431;DHT22;2228;48.140;11.488;2023-03-01T04:13:16;1.70;1.00
4431;DHT22;2228;48.140;11.488;2023-03-01T04:15:45;1.70;1.00
4431;DHT22;2228;48.140;11.488;2023-03-01T04:18:13;1.80;1.00
4431;DHT22;2228;48.140;11.488;2023-03-01T04:20:41;1.70;1.00
4431;DHT22;2228;48.140;11.488;2023-03-01T04:23:10;1.80;1.00
4431;DHT22;2228;48.140;11.488;2023-03-01T04:25:45;1.70;1.00
4431;DHT22;2228;48.140;11.488;2023-03-01T04:28:12;1.60;1.00
4431;DHT22;2228;48.140;11.488;2023-03-01T04:30:39;1.60;1.00
4431;DHT22;2228;48.140;11.488;2023-03-01T04:33:08;1.50;1.00
4431;DHT22;2228;48.140;11.488;2023-03-01T04:35:36;1.50;1.00
4431;DHT22;2228;48.140;11.488;2023-03-01T04:38:05;1.60;1.00
4431;DHT22;2228;48.140;11.488;2023-03-01T04:40:32;1.50;1.00
4431;DHT22;2228;48.140;11.488;2023-03-01T04:43:01;1.50;1.00
4431;DHT22;2228;48.140;11.488;2023-03-01T04:45:28;1.50;1.00
4431;DHT22;2228;48.140;11.488;2023-03-01T04:47:55;1.50;1.00
4431;DHT22;2228;48.140;11.488;2023-03-01T04:50:23;1.50;1.00
4431;DHT22;2228;48.140;11.488;2023-03-01T04:52:51;1.50;1.00
4431;DHT22;2228;48.140;11.488;2023-03-01T04:55:18;1.50;1.00
4431;DHT22;2228;48.140;11.488;2023-03-01T04:57:45;1.50;1.00
4431;DHT22;2228;48.140;11.488;2023-03-01T05:00:15;1.40;1.00
4431;DHT22;2228;48.140;11.488;2023-03-01T05:02:51;1.30;1.00
4431;DHT22;2228;48.140;11.488;2023-03-01T05:05:24;1.30;1.00
4431;DHT22;2228;48.140;11.488;2023-03-01T05:07:53;1.30;1.00
4431;DHT22;2228;48.140;11.488;2023-03-01T05:10:21;1.20;1.00
4431;DHT22;2228;48.140;11.488;2023-03-01T05:12:48;1.30;1.00
4431;DHT22;2228;48.140;11.488;2023-03-01T05:15:16;1.20;1.00
4431;DHT22;2228;48.140;11.488;2023-03-01T05:17:43;1.30;1.00
4431;DHT22;2228;48.140;11.488;2023-03-01T05:20:12;1.30;1.00
4431;DHT22;2228;48.140;11.488;2023-03-01T05:22:38;1.20;1.00
4431;DHT22;2228;48.140;11.488;2023-03-01T05:25:06;1.30;1.00
4431;DHT22;2228;48.140;11.488;2023-03-01T05:27:37;1.20;1.00
4431;DHT22;2228;48.140;11.488;2023-03-01T05:30:05;1.10;1.00
4431;DHT22;2228;48.140;11.488;2023-03-01T05:32:43;1.00;1.00
4431;DHT22;2228;48.140;11.488;2023-03-01T05:35:11;1.00;1.00
4431;DHT22;2228;48.140;11.488;2023-03-01T05:37:41;1.00;1.00
4431;DHT22;2228;48.140;11.488;2023-03-01T05:40:10;1.00;1.00
4431;DHT22;2228;48.140;11.488;2023-03-01T05:42:45;0.90;1.00
4431;DHT22;2228;48.140;11.488;2023-03-01T05:45:13;0.90;1.00
4431;DHT22;2228;48.140;11.488;2023-03-01T05:47:44;0.90;1.00
4431;DHT22;2228;48.140;11.488;2023-03-01T05:50:12;0.80;1.00
4431;DHT22;2228;48.140;11.488;2023-03-01T05:52:39;0.90;1.00
4431;DHT22;2228;48.140;11.488;2023-03-01T05:55:07;0.90;1.00
4431;DHT22;2228;48.140;11.488;2023-03-01T05:57:34;0.90;1.00
4431;DHT22;2228;48.140;11.488;2023-03-01T06:00:01;1.00;1.00
4431;DHT22;2228;48.140;11.488;2023-03-01T06:02:28;1.00;1.00
4431;DHT22;2228;48.140;11.488;2023-03-01T06:04:57;1.00;1.00
4431;DHT22;2228;48.140;11.488;2023-03-01T06:09:58;1.00;1.00
4431;DHT22;2228;48.140;11.488;2023-03-01T06:12:25;1.00;1.00
4431;DHT22;2228;48.140;11.488;2023-03-01T06:14:52;1.00;1.00
4431;DHT22;2228;48.140;11.488;2023-03-01T06:17:19;1.00;1.00
4431;DHT22;2228;48.140;11.488;2023-03-01T06:19:46;1.10;1.00
4431;DHT22;2228;48.140;11.488;2023-03-01T06:22:15;1.20;1.00
4431;DHT22;2228;48.140;11.488;2023-03-01T06:24:42;1.20;1.00
4431;DHT22;2228;48.140;11.488;2023-03-01T06:27:09;1.10;1.00
4431;DHT22;2228;48.140;11.488;2023-03-01T06:29:36;1.10;1.00
4431;DHT22;2228;48.140;11.488;2023-03-01T06:32:03;1.10;1.00
4431;DHT22;2228;48.140;11.488;2023-03-01T06:34:31;1.10;1.00
4431;DHT22;2228;48.140;11.488;2023-03-01T06:36:58;1.00;1.00
4431;DHT22;2228;48.140;11.488;2023-03-01T06:39:27;1.10;1.00
4431;DHT22;2228;48.140;11.488;2023-03-01T06:41:54;1.00;1.00
4431;DHT22;2228;48.140;11.488;2023-03-01T06:44:21;1.10;1.00
4431;DHT22;2228;48.140;11.488;2023-03-01T06:46:48;1.10;1.00
4431;DHT22;2228;48.140;11.488;2023-03-01T06:49:15;1.20;1.00
4431;DHT22;2228;48.140;11.488;2023-03-01T06:51:44;1.30;1.00
4431;DHT22;2228;48.140;11.488;2023-03-01T06:54:11;1.30;1.00
4431;DHT22;2228;48.140;11.488;2023-03-01T06:56:40;1.30;1.00
4431;DHT22;2228;48.140;11.488;2023-03-01T06:59:06;1.30;1.00
4431;DHT22;2228;48.140;11.488;2023-03-01T07:01:33;1.20;1.00
4431;DHT22;2228;48.140;11.488;2023-03-01T07:04:00;1.30;1.00
4431;DHT22;2228;48.140;11.488;2023-03-01T07:06:27;1.40;1.00
4431;DHT22;2228;48.140;11.488;2023-03-01T07:08:54;1.40;1.00
4431;DHT22;2228;48.140;11.488;2023-03-01T07:11:21;1.50;1.00
4431;DHT22;2228;48.140;11.488;2023-03-01T07:13:50;1.50;1.00
4431;DHT22;2228;48.140;11.488;2023-03-01T07:16:17;1.50;1.00
4431;DHT22;2228;48.140;11.488;2023-03-01T07:18:46;1.60;1.00
4431;DHT22;2228;48.140;11.488;2023-03-01T07:21:14;1.70;1.00
4431;DHT22;2228;48.140;11.488;2023-03-01T07:23:41;1.70;1.00
4431;DHT22;2228;48.140;11.488;2023-03-01T07:26:08;1.70;1.00
4431;DHT22;2228;48.140;11.488;2023-03-01T07:28:35;1.80;1.00
4431;DHT22;2228;48.140;11.488;2023-03-01T07:31:06;1.80;1.00
4431;DHT22;2228;48.140;11.488;2023-03-01T07:33:33;1.90;1.00
4431;DHT22;2228;48.140;11.488;2023-03-01T07:36:01;2.00;1.00
4431;DHT22;2228;48.140;11.488;2023-03-01T07:38:29;2.00;1.00
4431;DHT22;2228;48.140;11.488;2023-03-01T07:40:58;2.20;1.00
4431;DHT22;2228;48.140;11.488;2023-03-01T07:43:25;2.20;1.00
4431;DHT22;2228;48.140;11.488;2023-03-01T07:45:52;2.20;1.00
4431;DHT22;2228;48.140;11.488;2023-03-01T07:48:20;2.20;1.00
4431;DHT22;2228;48.140;11.488;2023-03-01T07:50:47;2.20;1.00
4431;DHT22;2228;48.140;11.488;2023-03-01T07:53:14;2.30;1.00
4431;DHT22;2228;48.140;11.488;2023-03-01T07:55:41;2.40;1.00
4431;DHT22;2228;48.140;11.488;2023-03-01T07:58:07;2.50;1.00
4431;DHT22;2228;48.140;11.488;2023-03-01T08:00:34;2.50;1.00
4431;DHT22;2228;48.140;11.488;2023-03-01T08:03:02;2.60;1.00
4431;DHT22;2228;48.140;11.488;2023-03-01T08:05:30;2.70;1.00
4431;DHT22;2228;48.140;11.488;2023-03-01T08:07:57;2.60;1.00
4431;DHT22;2228;48.140;11.488;2023-03-01T08:10:24;2.70;1.00
4431;DHT22;2228;48.140;11.488;2023-03-01T08:12:51;2.70;1.00
4431;DHT22;2228;48.140;11.488;2023-03-01T08:15:19;2.80;1.00
4431;DHT22;2228;48.140;11.488;2023-03-01T08:17:46;2.80;1.00
4431;DHT22;2228;48.140;11.488;2023-03-01T08:20:15;2.80;1.00
4431;DHT22;2228;48.140;11.488;2023-03-01T08:22:43;2.90;1.00
4431;DHT22;2228;48.140;11.488;2023-03-01T08:25:10;2.90;1.00
4431;DHT22;2228;48.140;11.488;2023-03-01T08:27:37;3.10;1.00
4431;DHT22;2228;48.140;11.488;2023-03-01T08:30:05;3.20;1.00
4431;DHT22;2228;48.140;11.488;2023-03-01T08:32:36;3.20;1.00
4431;DHT22;2228;48.140;11.488;2023-03-01T08:35:04;3.40;1.00
4431;DHT22;2228;48.140;11.488;2023-03-01T08:37:30;3.50;1.00
4431;DHT22;2228;48.140;11.488;2023-03-01T08:40:00;3.50;1.00
4431;DHT22;2228;48.140;11.488;2023-03-01T08:42:28;3.50;1.00
4431;DHT22;2228;48.140;11.488;2023-03-01T08:44:55;3.70;1.00
4431;DHT22;2228;48.140;11.488;2023-03-01T08:47:22;3.80;1.00
4431;DHT22;2228;48.140;11.488;2023-03-01T08:49:49;4.00;1.00
4431;DHT22;2228;48.140;11.488;2023-03-01T08:52:16;4.00;1.00
4431;DHT22;2228;48.140;11.488;2023-03-01T08:54:43;4.10;1.00
4431;DHT22;2228;48.140;11.488;2023-03-01T08:57:11;4.20;1.00
4431;DHT22;2228;48.140;11.488;2023-03-01T08:59:38;4.40;1.00
4431;DHT22;2228;48.140;11.488;2023-03-01T09:02:08;4.60;1.00
4431;DHT22;2228;48.140;11.488;2023-03-01T09:04:37;4.80;1.00
4431;DHT22;2228;48.140;11.488;2023-03-01T09:07:03;4.90;1.00
4431;DHT22;2228;48.140;11.488;2023-03-01T09:09:30;5.00;1.00
4431;DHT22;2228;48.140;11.488;2023-03-01T09:11:57;5.10;1.00
4431;DHT22;2228;48.140;11.488;2023-03-01T09:14:25;5.10;1.00
4431;DHT22;2228;48.140;11.488;2023-03-01T09:16:52;5.20;1.00
4431;DHT22;2228;48.140;11.488;2023-03-01T09:19:19;5.30;1.00
4431;DHT22;2228;48.140;11.488;2023-03-01T09:21:46;5.30;1.00
4431;DHT22;2228;48.140;11.488;2023-03-01T09:24:19;5.20;1.00
4431;DHT22;2228;48.140;11.488;2023-03-01T09:26:47;5.20;1.00
4431;DHT22;2228;48.140;11.488;2023-03-01T09:29:14;5.30;1.00
4431;DHT22;2228;48.140;11.488;2023-03-01T09:31:42;5.40;1.00
4431;DHT22;2228;48.140;11.488;2023-03-01T09:34:09;5.40;1.00
4431;DHT22;2228;48.140;11.488;2023-03-01T09:36:37;5.50;1.00
4431;DHT22;2228;48.140;11.488;2023-03-01T09:39:04;5.60;1.00
4431;DHT22;2228;48.140;11.488;2023-03-01T09:41:45;5.80;1.00
4431;DHT22;2228;48.140;11.488;2023-03-01T09:44:21;5.70;1.00
4431;DHT22;2228;48.140;11.488;2023-03-01T09:46:52;5.40;1.00
4431;DHT22;2228;48.140;11.488;2023-03-01T09:49:21;5.40;1.00
4431;DHT22;2228;48.140;11.488;2023-03-01T09:51:56;5.30;1.00
4431;DHT22;2228;48.140;11.488;2023-03-01T09:54:23;5.40;1.00
4431;DHT22;2228;48.140;11.488;2023-03-01T09:57:03;5.70;1.00
4431;DHT22;2228;48.140;11.488;2023-03-01T09:59:39;5.90;1.00
4431;DHT22;2228;48.140;11.488;2023-03-01T10:02:22;6.20;1.00
4431;DHT22;2228;48.140;11.488;2023-03-01T10:04:51;6.20;1.00
4431;DHT22;2228;48.140;11.488;2023-03-01T10:07:27;6.40;1.00
4431;DHT22;2228;48.140;11.488;2023-03-01T10:09:59;6.40;1.00
4431;DHT22;2228;48.140;11.488;2023-03-01T10:12:35;6.50;1.00
4431;DHT22;2228;48.140;11.488;2023-03-01T10:15:06;6.70;1.00
4431;DHT22;2228;48.140;11.488;2023-03-01T10:17:41;6.60;1.00
4431;DHT22;2228;48.140;11.488;2023-03-01T10:20:16;6.50;1.00
4431;DHT22;2228;48.140;11.488;2023-03-01T10:22:44;6.60;1.00
4431;DHT22;2228;48.140;11.488;2023-03-01T10:25:18;6.90;1.00
4431;DHT22;2228;48.140;11.488;2023-03-01T10:27:54;6.80;1.00
4431;DHT22;2228;48.140;11.488;2023-03-01T10:30:32;6.80;1.00
4431;DHT22;2228;48.140;11.488;2023-03-01T10:33:03;6.60;1.00
4431;DHT22;2228;48.140;11.488;2023-03-01T10:35:33;7.00;1.00
4431;DHT22;2228;48.140;11.488;2023-03-01T10:38:06;7.30;1.00
4431;DHT22;2228;48.140;11.488;2023-03-01T10:40:35;7.10;1.00
4431;DHT22;2228;48.140;11.488;2023-03-01T10:43:04;6.90;1.00
4431;DHT22;2228;48.140;11.488;2023-03-01T10:45:34;6.60;1.00
4431;DHT22;2228;48.140;11.488;2023-03-01T10:48:12;6.40;1.00
4431;DHT22;2228;48.140;11.488;2023-03-01T10:50:41;6.60;1.00
4431;DHT22;2228;48.140;11.488;2023-03-01T10:53:24;6.50;1.00
4431;DHT22;2228;48.140;11.488;2023-03-01T10:56:00;7.00;1.00
4431;DHT22;2228;48.140;11.488;2023-03-01T10:58:28;7.00;1.00
4431;DHT22;2228;48.140;11.488;2023-03-01T11:00:57;7.10;1.00
4431;DHT22;2228;48.140;11.488;2023-03-01T11:03:27;7.30;1.00
4431;DHT22;2228;48.140;11.488;2023-03-01T11:06:02;7.90;1.00
4431;DHT22;2228;48.140;11.488;2023-03-01T11:08:35;7.80;1.00
4431;DHT22;2228;48.140;11.488;2023-03-01T11:11:13;7.60;1.00
4431;DHT22;2228;48.140;11.488;2023-03-01T11:13:52;7.60;1.00
4431;DHT22;2228;48.140;11.488;2023-03-01T11:16:28;7.30;1.00
4431;DHT22;2228;48.140;11.488;2023-03-01T11:18:59;7.20;1.00
4431;DHT22;2228;48.140;11.488;2023-03-01T11:21:29;7.50;1.00
4431;DHT22;2228;48.140;11.488;2023-03-01T11:24:00;8.10;1.00
4431;DHT22;2228;48.140;11.488;2023-03-01T11:26:28;9.00;1.00
4431;DHT22;2228;48.140;11.488;2023-03-01T11:29:02;9.50;1.00
4431;DHT22;2228;48.140;11.488;2023-03-01T11:31:31;10.10;1.00
4431;DHT22;2228;48.140;11.488;2023-03-01T11:34:07;10.70;1.00
4431;DHT22;2228;48.140;11.488;2023-03-01T11:36:38;11.30;1.00
4431;DHT22;2228;48.140;11.488;2023-03-01T11:39:18;11.60;1.00
4431;DHT22;2228;48.140;11.488;2023-03-01T11:41:50;11.80;1.00
4431;DHT22;2228;48.140;11.488;2023-03-01T11:44:23;12.30;1.00
4431;DHT22;2228;48.140;11.488;2023-03-01T11:52:34;13.30;1.00
4431;DHT22;2228;48.140;11.488;2023-03-01T11:55:26;13.50;1.00
4431;DHT22;2228;48.140;11.488;2023-03-01T11:58:12;14.00;1.00
4431;DHT22;2228;48.140;11.488;2023-03-01T12:00:59;14.30;1.00
4431;DHT22;2228;48.140;11.488;2023-03-01T12:03:52;14.30;1.00
4431;DHT22;2228;48.140;11.488;2023-03-01T12:06:32;14.20;1.00
4431;DHT22;2228;48.140;11.488;2023-03-01T12:09:16;14.40;1.00
4431;DHT22;2228;48.140;11.488;2023-03-01T12:12:06;14.40;1.00
4431;DHT22;2228;48.140;11.488;2023-03-01T12:14:59;14.60;1.00
4431;DHT22;2228;48.140;11.488;2023-03-01T12:17:44;15.00;1.00
4431;DHT22;2228;48.140;11.488;2023-03-01T12:20:21;14.50;1.00
4431;DHT22;2228;48.140;11.488;2023-03-01T12:23:04;14.50;1.00
4431;DHT22;2228;48.140;11.488;2023-03-01T12:25:37;14.70;1.00
4431;DHT22;2228;48.140;11.488;2023-03-01T12:28:31;14.30;1.00
4431;DHT22;2228;48.140;11.488;2023-03-01T12:31:17;14.20;1.00
4431;DHT22;2228;48.140;11.488;2023-03-01T12:33:57;14.90;1.00
4431;DHT22;2228;48.140;11.488;2023-03-01T12:36:41;15.50;1.00
4431;DHT22;2228;48.140;11.488;2023-03-01T12:39:24;16.10;1.00
4431;DHT22;2228;48.140;11.488;2023-03-01T12:42:01;16.80;1.00
4431;DHT22;2228;48.140;11.488;2023-03-01T12:44:42;17.00;1.00
4431;DHT22;2228;48.140;11.488;2023-03-01T12:47:26;17.20;1.00
4431;DHT22;2228;48.140;11.488;2023-03-01T12:49:57;17.40;1.00
4431;DHT22;2228;48.140;11.488;2023-03-01T12:52:31;17.60;1.00
4431;DHT22;2228;48.140;11.488;2023-03-01T12:55:02;17.50;1.00
4431;DHT22;2228;48.140;11.488;2023-03-01T12:57:37;17.10;1.00
4431;DHT22;2228;48.140;11.488;2023-03-01T13:00:17;16.10;1.00
4431;DHT22;2228;48.140;11.488;2023-03-01T13:02:52;15.20;1.00
4431;DHT22;2228;48.140;11.488;2023-03-01T13:05:27;14.90;1.00
4431;DHT22;2228;48.140;11.488;2023-03-01T13:08:01;14.70;1.00
4431;DHT22;2228;48.140;11.488;2023-03-01T13:10:40;15.00;1.00
4431;DHT22;2228;48.140;11.488;2023-03-01T13:13:18;15.10;1.00
4431;DHT22;2228;48.140;11.488;2023-03-01T13:15:46;15.20;1.00
4431;DHT22;2228;48.140;11.488;2023-03-01T13:18:32;15.60;1.00
4431;DHT22;2228;48.140;11.488;2023-03-01T13:21:01;16.00;1.00
4431;DHT22;2228;48.140;11.488;2023-03-01T13:23:31;16.10;1.00
4431;DHT22;2228;48.140;11.488;2023-03-01T13:26:09;16.30;1.00
4431;DHT22;2228;48.140;11.488;2023-03-01T13:28:56;16.50;1.00
4431;DHT22;2228;48.140;11.488;2023-03-01T13:34:43;16.70;1.00
4431;DHT22;2228;48.140;11.488;2023-03-01T13:37:19;16.60;1.00
4431;DHT22;2228;48.140;11.488;2023-03-01T13:39:47;16.30;1.00
4431;DHT22;2228;48.140;11.488;2023-03-01T13:42:41;15.70;1.00
4431;DHT22;2228;48.140;11.488;2023-03-01T13:45:19;15.60;1.00
4431;DHT22;2228;48.140;11.488;2023-03-01T13:47:49;15.30;1.00
4431;DHT22;2228;48.140;11.488;2023-03-01T13:50:21;15.70;1.00
4431;DHT22;2228;48.140;11.488;2023-03-01T13:52:52;16.10;1.00
4431;DHT22;2228;48.140;11.488;2023-03-01T13:55:23;16.20;1.00
4431;DHT22;2228;48.140;11.488;2023-03-01T13:57:55;16.40;1.00
4431;DHT22;2228;48.140;11.488;2023-03-01T14:00:33;17.00;1.00
4431;DHT22;2228;48.140;11.488;2023-03-01T14:03:04;17.30;1.00
4431;DHT22;2228;48.140;11.488;2023-03-01T14:05:38;17.30;1.00
4431;DHT22;2228;48.140;11.488;2023-03-01T14:08:19;17.10;1.00
4431;DHT22;2228;48.140;11.488;2023-03-01T14:10:54;17.00;1.00
4431;DHT22;2228;48.140;11.488;2023-03-01T14:13:47;17.20;1.00
4431;DHT22;2228;48.140;11.488;2023-03-01T14:16:24;17.30;1.00
4431;DHT22;2228;48.140;11.488;2023-03-01T14:19:08;17.30;1.00
4431;DHT22;2228;48.140;11.488;2023-03-01T14:21:36;17.20;1.00
4431;DHT22;2228;48.140;11.488;2023-03-01T14:24:04;17.10;1.00
4431;DHT22;2228;48.140;11.488;2023-03-01T14:26:32;17.10;1.00
4431;DHT22;2228;48.140;11.488;2023-03-01T14:29:01;17.40;1.00
4431;DHT22;2228;48.140;11.488;2023-03-01T14:31:37;17.60;1.00
4431;DHT22;2228;48.140;11.488;2023-03-01T14:34:05;17.60;1.00
4431;DHT22;2228;48.140;11.488;2023-03-01T14:36:34;17.80;1.00
4431;DHT22;2228;48.140;11.488;2023-03-01T14:39:01;18.00;1.00
4431;DHT22;2228;48.140;11.488;2023-03-01T14:41:33;17.50;1.00
4431;DHT22;2228;48.140;11.488;2023-03-01T14:44:06;17.60;1.00
4431;DHT22;2228;48.140;11.488;2023-03-01T14:46:36;17.70;1.00
4431;DHT22;2228;48.140;11.488;2023-03-01T14:49:05;17.10;1.00
4431;DHT22;2228;48.140;11.488;2023-03-01T14:51:39;16.70;99.90
4431;DHT22;2228;48.140;11.488;2023-03-01T14:54:24;16.70;99.90
4431;DHT22;2228;48.140;11.488;2023-03-01T14:56:58;16.40;99.90
4431;DHT22;2228;48.140;11.488;2023-03-01T14:59:26;15.50;99.90
4431;DHT22;2228;48.140;11.488;2023-03-01T15:01:55;15.20;99.90
4431;DHT22;2228;48.140;11.488;2023-03-01T15:04:23;15.10;99.90
4431;DHT22;2228;48.140;11.488;2023-03-01T15:06:52;15.00;99.90
4431;DHT22;2228;48.140;11.488;2023-03-01T15:09:20;14.70;99.90
4431;DHT22;2228;48.140;11.488;2023-03-01T15:11:47;14.70;99.90
4431;DHT22;2228;48.140;11.488;2023-03-01T15:14:41;14.80;99.90
4431;DHT22;2228;48.140;11.488;2023-03-01T15:17:26;15.20;99.90
4431;DHT22;2228;48.140;11.488;2023-03-01T15:19:54;15.20;99.90
4431;DHT22;2228;48.140;11.488;2023-03-01T15:22:23;14.40;99.90
4431;DHT22;2228;48.140;11.488;2023-03-01T15:24:51;14.10;99.90
4431;DHT22;2228;48.140;11.488;2023-03-01T15:27:20;13.80;99.90
4431;DHT22;2228;48.140;11.488;2023-03-01T15:29:52;13.60;99.90
4431;DHT22;2228;48.140;11.488;2023-03-01T15:32:27;13.60;99.90
4431;DHT22;2228;48.140;11.488;2023-03-01T15:34:54;13.70;99.90
4431;DHT22;2228;48.140;11.488;2023-03-01T15:37:39;13.90;99.90
4431;DHT22;2228;48.140;11.488;2023-03-01T15:40:18;13.60;1.00
4431;DHT22;2228;48.140;11.488;2023-03-01T15:42:46;13.40;99.90
4431;DHT22;2228;48.140;11.488;2023-03-01T15:45:23;13.20;99.90
4431;DHT22;2228;48.140;11.488;2023-03-01T15:47:54;13.20;99.90
4431;DHT22;2228;48.140;11.488;2023-03-01T15:50:25;13.30;99.90
4431;DHT22;2228;48.140;11.488;2023-03-01T15:52:52;13.30;99.90
4431;DHT22;2228;48.140;11.488;2023-03-01T15:55:24;13.10;99.90
4431;DHT22;2228;48.140;11.488;2023-03-01T15:57:58;13.00;99.90
4431;DHT22;2228;48.140;11.488;2023-03-01T16:00:28;12.90;99.90
4431;DHT22;2228;48.140;11.488;2023-03-01T16:02:56;13.00;99.90
4431;DHT22;2228;48.140;11.488;2023-03-01T16:05:25;12.90;99.90
4431;DHT22;2228;48.140;11.488;2023-03-01T16:07:52;12.40;99.90
4431;DHT22;2228;48.140;11.488;2023-03-01T16:10:20;11.90;99.90
4431;DHT22;2228;48.140;11.488;2023-03-01T16:12:47;11.10;99.90
4431;DHT22;2228;48.140;11.488;2023-03-01T16:15:18;10.40;99.90
4431;DHT22;2228;48.140;11.488;2023-03-01T16:17:47;9.80;99.90
4431;DHT22;2228;48.140;11.488;2023-03-01T16:20:14;9.40;99.90
4431;DHT22;2228;48.140;11.488;2023-03-01T16:22:42;9.20;99.90
4431;DHT22;2228;48.140;11.488;2023-03-01T16:25:10;8.90;1.00
4431;DHT22;2228;48.140;11.488;2023-03-01T16:27:37;8.60;1.00
4431;DHT22;2228;48.140;11.488;2023-03-01T16:30:05;8.30;1.00
4431;DHT22;2228;48.140;11.488;2023-03-01T16:32:32;8.10;1.00
4431;DHT22;2228;48.140;11.488;2023-03-01T16:35:00;7.90;1.00
4431;DHT22;2228;48.140;11.488;2023-03-01T16:37:31;7.80;1.00
4431;DHT22;2228;48.140;11.488;2023-03-01T16:39:58;7.60;1.00
4431;DHT22;2228;48.140;11.488;2023-03-01T16:42:25;7.50;1.00
4431;DHT22;2228;48.140;11.488;2023-03-01T16:44:54;7.30;1.00
4431;DHT22;2228;48.140;11.488;2023-03-01T16:47:21;7.20;1.00
4431;DHT22;2228;48.140;11.488;2023-03-01T16:49:51;7.00;1.00